createdAt,value
2023-03-26T00:02:29.860Z,15.60
2023-03-26T00:04:58.115Z,15.50
2023-03-26T00:07:27.964Z,15.60
2023-03-26T00:09:58.149Z,15.60
2023-03-26T00:12:26.745Z,15.50
2023-03-26T00:14:54.985Z,15.50
2023-03-26T00:17:23.416Z,15.50
2023-03-26T00:19:53.708Z,15.50
2023-03-26T00:22:23.738Z,15.50
2023-03-26T00:24:52.130Z,15.40
2023-03-26T00:27:21.824Z,15.40
2023-03-26T00:29:50.062Z,15.30
2023-03-26T00:32:18.328Z,15.30
2023-03-26T00:34:46.806Z,15.30
2023-03-26T00:37:15.295Z,15.30
2023-03-26T00:39:44.713Z,15.20
2023-03-26T00:42:14.784Z,15.20
2023-03-26T00:44:44.298Z,15.20
2023-03-26T00:47:13.172Z,15.20
2023-03-26T00:49:41.424Z,15.20
2023-03-26T00:52:10.173Z,15.20
2023-03-26T00:54:38.356Z,15.20
2023-03-26T00:57:06.889Z,15.10
2023-03-26T00:59:35.947Z,15.10
2023-03-26T01:02:05.916Z,15.10
2023-03-26T01:04:37.515Z,15.10
2023-03-26T01:07:11.828Z,15.10
2023-03-26T01:09:45.769Z,15.10
2023-03-26T01:12:17.196Z,15.10
2023-03-26T01:14:46.035Z,15.10
2023-03-26T01:17:16.001Z,15.00
2023-03-26T01:19:51.954Z,15.10
2023-03-26T01:22:22.477Z,15.10
2023-03-26T01:24:56.397Z,15.10
2023-03-26T01:27:41.182Z,15.10
2023-03-26T01:30:18.827Z,15.10
2023-03-26T01:33:03.664Z,15.10
2023-03-26T01:35:40.487Z,15.10
2023-03-26T01:38:23.126Z,14.90
2023-03-26T01:40:58.511Z,14.50
2023-03-26T01:43:32.387Z,14.40
2023-03-26T01:46:03.618Z,14.20
2023-03-26T01:48:36.238Z,14.10
2023-03-26T01:51:05.606Z,14.10
2023-03-26T01:53:37.290Z,14.00
2023-03-26T01:56:15.305Z,14.00
2023-03-26T01:58:55.196Z,14.00
2023-03-26T02:01:30.327Z,14.00
2023-03-26T02:04:03.698Z,14.00
2023-03-26T02:06:39.505Z,14.00
2023-03-26T02:09:10.090Z,14.00
2023-03-26T02:11:41.780Z,14.00
2023-03-26T02:14:10.493Z,14.00
2023-03-26T02:16:38.859Z,14.00
2023-03-26T02:19:15.964Z,14.00
2023-03-26T02:21:45.979Z,14.00
2023-03-26T02:24:14.174Z,14.00
2023-03-26T02:26:43.851Z,14.00
2023-03-26T02:29:12.599Z,14.00
2023-03-26T02:31:41.036Z,14.00
2023-03-26T02:34:09.290Z,14.00
2023-03-26T02:36:37.575Z,14.00
2023-03-26T02:39:06.251Z,14.00
2023-03-26T02:41:34.411Z,14.00
2023-03-26T02:44:04.508Z,13.90
2023-03-26T02:46:33.125Z,13.90
2023-03-26T02:49:01.329Z,13.90
2023-03-26T02:51:29.547Z,13.90
2023-03-26T02:53:57.859Z,13.90
2023-03-26T02:56:26.193Z,13.90
2023-03-26T02:58:54.442Z,13.90
2023-03-26T03:01:24.180Z,13.90
2023-03-26T03:03:52.427Z,13.90
2023-03-26T03:06:20.910Z,13.90
2023-03-26T03:08:50.076Z,13.90
2023-03-26T03:11:22.139Z,13.80
2023-03-26T03:13:50.726Z,13.90
2023-03-26T03:16:20.179Z,13.80
2023-03-26T03:18:58.066Z,13.80
2023-03-26T03:21:28.767Z,13.80
2023-03-26T03:23:59.973Z,13.80
2023-03-26T03:26:30.116Z,13.80
2023-03-26T03:28:59.340Z,13.80
2023-03-26T03:31:28.495Z,13.70
2023-03-26T03:33:58.238Z,13.70
2023-03-26T03:36:28.055Z,13.70
2023-03-26T03:39:02.107Z,13.70
2023-03-26T03:41:30.553Z,13.70
2023-03-26T03:43:59.894Z,13.70
2023-03-26T03:46:28.585Z,13.60
2023-03-26T03:48:58.405Z,13.60
2023-03-26T03:51:26.595Z,13.60
2023-03-26T03:53:55.894Z,13.50
2023-03-26T03:56:26.257Z,13.50
2023-03-26T03:58:54.529Z,13.50
2023-03-26T04:01:23.611Z,13.40
2023-03-26T04:03:51.936Z,13.40
2023-03-26T04:06:21.498Z,13.30
2023-03-26T04:08:49.727Z,13.30
2023-03-26T04:11:18.214Z,13.30
2023-03-26T04:13:46.395Z,13.30
2023-03-26T04:16:14.601Z,13.20
2023-03-26T04:18:42.940Z,13.10
2023-03-26T04:21:12.642Z,13.10
2023-03-26T04:23:42.740Z,13.00
2023-03-26T04:26:17.602Z,12.90
2023-03-26T04:28:48.626Z,12.90
2023-03-26T04:31:24.078Z,12.80
2023-03-26T04:33:55.896Z,12.80
2023-03-26T04:36:28.619Z,12.70
2023-03-26T04:39:02.461Z,12.70
2023-03-26T04:41:32.422Z,12.60
2023-03-26T04:44:02.058Z,12.50
2023-03-26T04:46:33.611Z,12.50
2023-03-26T04:49:02.886Z,12.50
2023-03-26T04:51:39.264Z,12.40
2023-03-26T04:54:09.695Z,12.40
2023-03-26T04:56:46.076Z,12.30
2023-03-26T04:59:17.695Z,12.30
2023-03-26T05:01:46.735Z,12.30
2023-03-26T05:04:15.696Z,12.20
2023-03-26T05:06:43.926Z,12.20
2023-03-26T05:09:14.395Z,12.20
2023-03-26T05:11:42.814Z,12.20
2023-03-26T05:14:10.958Z,12.10
2023-03-26T05:16:41.468Z,12.10
2023-03-26T05:19:10.098Z,12.10
2023-03-26T05:21:38.411Z,12.10
2023-03-26T05:24:07.752Z,12.10
2023-03-26T05:26:38.192Z,12.00
2023-03-26T05:29:06.342Z,12.10
2023-03-26T05:31:34.588Z,12.00
2023-03-26T05:34:03.338Z,12.00
2023-03-26T05:36:31.567Z,12.10
2023-03-26T05:39:00.002Z,12.10
2023-03-26T05:41:28.189Z,12.10
2023-03-26T05:43:57.825Z,12.10
2023-03-26T05:46:27.182Z,12.20
2023-03-26T05:48:55.709Z,12.20
2023-03-26T05:51:24.486Z,12.20
2023-03-26T05:53:52.866Z,12.30
2023-03-26T05:56:21.185Z,12.30
2023-03-26T05:58:51.502Z,12.30
2023-03-26T06:01:22.689Z,12.40
2023-03-26T06:03:51.653Z,12.40
2023-03-26T06:06:21.495Z,12.40
2023-03-26T06:09:02.041Z,12.40
2023-03-26T06:11:32.458Z,12.50
2023-03-26T06:14:00.834Z,12.40
2023-03-26T06:16:30.407Z,12.40
2023-03-26T06:18:58.813Z,12.40
2023-03-26T06:21:27.741Z,12.40
2023-03-26T06:23:56.631Z,12.40
2023-03-26T06:26:24.873Z,12.40
2023-03-26T06:28:53.059Z,12.40
2023-03-26T06:31:21.319Z,12.40
2023-03-26T06:33:51.356Z,12.40
2023-03-26T06:36:19.730Z,12.40
2023-03-26T06:38:48.041Z,12.40
2023-03-26T06:41:16.313Z,12.40
2023-03-26T06:43:44.584Z,12.40
2023-03-26T06:46:13.410Z,12.40
2023-03-26T06:48:42.336Z,12.40
2023-03-26T06:51:11.982Z,12.40
2023-03-26T06:53:40.327Z,12.40
2023-03-26T06:56:09.852Z,12.30
2023-03-26T06:58:38.367Z,12.30
2023-03-26T07:01:07.098Z,12.30
2023-03-26T07:03:35.500Z,12.40
2023-03-26T07:06:03.789Z,12.40
2023-03-26T07:08:33.402Z,12.50
2023-03-26T07:11:01.581Z,12.50
2023-03-26T07:13:29.701Z,12.60
2023-03-26T07:15:57.921Z,12.60
2023-03-26T07:18:26.203Z,12.70
2023-03-26T07:20:55.336Z,12.70
2023-03-26T07:23:24.288Z,12.80
2023-03-26T07:25:54.850Z,12.80
2023-03-26T07:28:29.510Z,12.80
2023-03-26T07:31:04.028Z,12.90
2023-03-26T07:33:40.449Z,12.90
2023-03-26T07:36:20.766Z,13.00
2023-03-26T07:39:05.033Z,13.00
2023-03-26T07:41:41.932Z,13.10
2023-03-26T07:44:25.068Z,13.10
2023-03-26T07:46:54.503Z,13.10
2023-03-26T07:49:23.440Z,13.20
2023-03-26T07:51:52.239Z,13.20
2023-03-26T07:54:20.848Z,13.10
2023-03-26T07:56:58.878Z,13.10
2023-03-26T07:59:32.304Z,13.10
2023-03-26T08:02:24.037Z,13.10
2023-03-26T08:05:10.438Z,13.10
2023-03-26T08:07:52.745Z,13.00
2023-03-26T08:10:27.221Z,12.90
2023-03-26T08:13:07.930Z,12.90
2023-03-26T08:15:44.155Z,12.90
2023-03-26T08:18:27.494Z,12.90
2023-03-26T08:20:59.495Z,12.90
2023-03-26T08:23:35.247Z,12.90
2023-03-26T08:26:12.885Z,13.00
2023-03-26T08:28:55.360Z,13.00
2023-03-26T08:31:34.114Z,13.10
2023-03-26T08:34:03.086Z,13.10
2023-03-26T08:36:31.504Z,13.10
2023-03-26T08:39:00.156Z,13.20
2023-03-26T08:42:04.758Z,13.20
2023-03-26T08:44:57.126Z,13.30
2023-03-26T08:47:57.133Z,13.40
2023-03-26T08:51:01.544Z,13.50
2023-03-26T08:54:06.430Z,13.50
2023-03-26T08:56:47.833Z,13.60
2023-03-26T08:59:56.810Z,13.70
2023-03-26T09:02:51.887Z,13.70
2023-03-26T09:05:59.231Z,13.70
2023-03-26T09:09:04.635Z,13.80
2023-03-26T09:12:00.381Z,13.90
2023-03-26T09:15:12.629Z,14.00
2023-03-26T09:18:10.741Z,14.00
2023-03-26T09:21:18.102Z,14.10
2023-03-26T09:24:33.010Z,14.20
2023-03-26T09:27:16.355Z,14.20
2023-03-26T09:30:16.783Z,14.20
2023-03-26T09:33:17.401Z,14.20
2023-03-26T09:36:05.869Z,14.30
2023-03-26T09:38:43.123Z,14.30
2023-03-26T09:41:17.624Z,14.30
2023-03-26T09:44:18.708Z,14.30
2023-03-26T09:46:59.012Z,14.40
2023-03-26T09:49:43.445Z,14.40
2023-03-26T09:52:37.965Z,14.40
2023-03-26T09:55:46.496Z,14.50
2023-03-26T09:58:43.125Z,14.50
2023-03-26T10:01:19.280Z,14.50
2023-03-26T10:03:58.385Z,14.60
2023-03-26T10:06:41.528Z,14.60
2023-03-26T10:09:21.432Z,14.60
2023-03-26T10:12:06.877Z,14.60
2023-03-26T10:14:40.938Z,14.50
2023-03-26T10:17:25.634Z,14.50
2023-03-26T10:20:09.851Z,14.50
2023-03-26T10:22:50.310Z,14.50
2023-03-26T10:25:31.006Z,14.50
2023-03-26T10:28:17.017Z,14.50
2023-03-26T10:31:26.883Z,14.50
2023-03-26T10:34:06.056Z,14.50
2023-03-26T10:36:36.667Z,14.60
2023-03-26T10:39:37.654Z,14.50
2023-03-26T10:42:33.191Z,14.50
2023-03-26T10:45:25.964Z,14.50
2023-03-26T10:48:18.035Z,14.50
2023-03-26T10:51:09.034Z,14.50
2023-03-26T10:53:42.773Z,14.50
2023-03-26T10:56:18.141Z,14.50
2023-03-26T10:58:49.673Z,14.60
2023-03-26T11:01:29.101Z,14.70
2023-03-26T11:04:02.719Z,14.70
2023-03-26T11:06:39.866Z,14.70
2023-03-26T11:09:20.845Z,14.70
2023-03-26T11:11:57.210Z,14.70
2023-03-26T11:14:34.954Z,14.80
2023-03-26T11:17:40.523Z,14.80
2023-03-26T11:20:09.877Z,14.90
2023-03-26T11:22:50.417Z,14.90
2023-03-26T11:25:38.069Z,15.00
2023-03-26T11:28:28.822Z,15.00
2023-03-26T11:31:03.107Z,15.10
2023-03-26T11:33:36.595Z,15.20
2023-03-26T11:36:09.609Z,15.20
2023-03-26T11:38:41.952Z,15.30
2023-03-26T11:41:14.152Z,15.30
2023-03-26T11:43:49.846Z,15.40
2023-03-26T11:46:21.685Z,15.50
2023-03-26T11:48:53.853Z,15.50
2023-03-26T11:51:26.461Z,15.60
2023-03-26T11:53:54.776Z,15.60
2023-03-26T11:56:29.374Z,15.70
2023-03-26T11:59:03.006Z,15.70
2023-03-26T12:01:44.302Z,15.70
2023-03-26T12:04:14.872Z,15.70
2023-03-26T12:06:53.358Z,15.60
2023-03-26T12:09:21.911Z,15.60
2023-03-26T12:11:53.211Z,15.70
2023-03-26T12:14:26.150Z,15.80
2023-03-26T12:17:06.969Z,15.90
2023-03-26T12:19:41.164Z,15.90
2023-03-26T12:22:30.682Z,16.00
2023-03-26T12:25:04.615Z,16.00
2023-03-26T12:27:33.278Z,16.00
2023-03-26T12:30:12.304Z,16.10
2023-03-26T12:32:46.663Z,16.10
2023-03-26T12:35:19.518Z,16.10
2023-03-26T12:37:48.719Z,16.20
2023-03-26T12:40:30.875Z,16.20
2023-03-26T12:44:55.432Z,16.20
2023-03-26T12:47:55.324Z,16.30
2023-03-26T12:48:44.175Z,16.30
2023-03-26T12:51:21.548Z,16.40
2023-03-26T12:54:08.233Z,16.40
2023-03-26T12:56:45.462Z,16.40
2023-03-26T12:59:25.599Z,16.40
2023-03-26T13:02:02.675Z,16.40
2023-03-26T13:05:02.416Z,16.40
2023-03-26T13:07:56.481Z,16.50
2023-03-26T13:10:51.010Z,16.50
2023-03-26T13:14:00.907Z,16.50
2023-03-26T13:16:37.421Z,16.50
2023-03-26T13:19:11.747Z,16.50
2023-03-26T13:21:53.497Z,16.50
2023-03-26T13:24:32.171Z,16.40
2023-03-26T13:27:15.886Z,16.40
2023-03-26T13:29:56.452Z,16.30
2023-03-26T13:32:36.313Z,16.20
2023-03-26T13:35:16.068Z,16.20
2023-03-26T13:37:50.526Z,16.10
2023-03-26T13:40:26.594Z,16.10
2023-03-26T13:43:17.066Z,16.10
2023-03-26T13:45:55.894Z,16.20
2023-03-26T13:48:28.444Z,16.20
2023-03-26T13:51:06.167Z,16.20
2023-03-26T13:53:42.437Z,16.20
2023-03-26T13:56:16.374Z,16.20
2023-03-26T13:58:48.818Z,16.20
2023-03-26T14:01:20.743Z,16.20
2023-03-26T14:03:54.900Z,16.20
2023-03-26T14:06:36.894Z,16.10
2023-03-26T14:09:11.043Z,16.10
2023-03-26T14:11:55.385Z,16.00
2023-03-26T14:14:33.555Z,16.00
2023-03-26T14:17:07.871Z,16.00
2023-03-26T14:20:26.103Z,16.00
2023-03-26T14:23:12.654Z,15.90
2023-03-26T14:25:56.009Z,15.80
2023-03-26T14:29:06.442Z,15.80
2023-03-26T14:31:40.171Z,15.80
2023-03-26T14:34:38.505Z,15.70
2023-03-26T14:37:28.201Z,15.70
2023-03-26T14:40:32.148Z,15.60
2023-03-26T14:43:19.502Z,15.60
2023-03-26T14:46:00.327Z,15.50
2023-03-26T14:48:54.499Z,15.40
2023-03-26T14:51:41.499Z,15.40
2023-03-26T14:54:14.108Z,15.30
2023-03-26T14:57:12.446Z,15.30
2023-03-26T15:00:15.845Z,15.20
2023-03-26T15:03:19.780Z,15.10
2023-03-26T15:06:21.305Z,15.00
2023-03-26T15:09:37.379Z,14.90
2023-03-26T15:12:16.311Z,14.90
2023-03-26T15:15:13.136Z,14.90
2023-03-26T15:18:12.664Z,14.90
2023-03-26T15:21:31.312Z,14.80
2023-03-26T15:24:25.500Z,14.80
2023-03-26T15:27:38.503Z,14.80
2023-03-26T15:30:39.427Z,14.70
2023-03-26T15:33:43.852Z,14.50
2023-03-26T15:36:30.360Z,14.50
2023-03-26T15:39:58.668Z,14.50
2023-03-26T15:42:32.386Z,14.40
2023-03-26T15:45:22.456Z,14.40
2023-03-26T15:48:19.929Z,14.30
2023-03-26T15:50:55.815Z,14.30
2023-03-26T15:53:36.527Z,14.30
2023-03-26T15:56:14.965Z,14.20
2023-03-26T15:58:52.594Z,14.20
2023-03-26T16:01:34.083Z,14.10
2023-03-26T16:04:14.463Z,14.10
2023-03-26T16:06:53.160Z,14.00
2023-03-26T16:09:35.349Z,13.90
2023-03-26T16:12:35.900Z,13.80
2023-03-26T16:15:27.228Z,13.70
2023-03-26T16:18:37.750Z,13.60
2023-03-26T16:21:39.241Z,13.60
2023-03-26T16:24:29.415Z,13.70
2023-03-26T16:27:10.535Z,13.70
2023-03-26T16:30:12.558Z,13.70
2023-03-26T16:32:45.460Z,13.70
2023-03-26T16:35:42.236Z,13.70
2023-03-26T16:38:16.470Z,13.70
2023-03-26T16:41:03.614Z,13.70
2023-03-26T16:44:11.181Z,13.50
2023-03-26T16:46:50.692Z,13.50
2023-03-26T16:49:31.480Z,13.50
2023-03-26T16:52:16.568Z,13.50
2023-03-26T16:57:28.106Z,13.50
2023-03-26T17:00:19.973Z,13.50
2023-03-26T17:03:00.030Z,13.50
2023-03-26T17:05:37.624Z,13.20
2023-03-26T17:08:19.025Z,13.10
2023-03-26T17:11:10.272Z,13.20
2023-03-26T17:13:49.319Z,13.20
2023-03-26T17:16:23.530Z,13.30
2023-03-26T17:18:59.116Z,13.30
2023-03-26T17:21:45.605Z,13.30
2023-03-26T17:24:26.912Z,13.40
2023-03-26T17:27:02.487Z,13.40
2023-03-26T17:29:51.104Z,13.40
2023-03-26T17:32:21.699Z,13.30
2023-03-26T17:35:09.800Z,13.30
2023-03-26T17:37:48.170Z,13.40
2023-03-26T17:40:55.632Z,13.30
2023-03-26T17:43:40.434Z,13.30
2023-03-26T17:46:23.247Z,13.20
2023-03-26T17:48:58.089Z,13.10
2023-03-26T17:51:40.219Z,13.00
2023-03-26T17:54:14.777Z,12.90
2023-03-26T17:56:44.935Z,12.80
2023-03-26T17:59:18.445Z,12.80
2023-03-26T18:01:48.664Z,12.80
2023-03-26T18:04:20.270Z,12.80
2023-03-26T18:07:05.145Z,12.70
2023-03-26T18:09:48.269Z,12.70
2023-03-26T18:12:40.797Z,12.70
2023-03-26T18:15:23.599Z,12.80
2023-03-26T18:17:57.894Z,12.70
2023-03-26T18:20:29.399Z,12.70
2023-03-26T18:22:57.730Z,12.70
2023-03-26T18:25:28.358Z,12.70
2023-03-26T18:27:59.711Z,12.70
2023-03-26T18:30:28.115Z,12.50
2023-03-26T18:33:03.220Z,12.50
2023-03-26T18:35:44.016Z,12.50
2023-03-26T18:38:18.718Z,12.40
2023-03-26T18:41:05.981Z,12.40
2023-03-26T18:43:44.350Z,12.40
2023-03-26T18:46:14.679Z,12.20
2023-03-26T18:48:43.375Z,12.20
2023-03-26T18:51:11.998Z,12.20
2023-03-26T18:53:46.337Z,12.10
2023-03-26T18:56:30.946Z,12.10
2023-03-26T18:59:02.447Z,12.10
2023-03-26T19:01:32.180Z,12.00
2023-03-26T19:04:04.087Z,12.00
2023-03-26T19:06:35.986Z,11.90
2023-03-26T19:09:16.345Z,11.90
2023-03-26T19:11:57.143Z,12.00
2023-03-26T19:14:28.710Z,12.00
2023-03-26T19:17:00.705Z,11.90
2023-03-26T19:19:33.239Z,11.90
2023-03-26T19:22:02.764Z,11.80
2023-03-26T19:24:31.118Z,11.80
2023-03-26T19:26:59.942Z,11.90
2023-03-26T19:29:32.947Z,11.80
2023-03-26T19:32:05.740Z,11.80
2023-03-26T19:34:37.346Z,11.80
2023-03-26T19:37:18.982Z,11.80
2023-03-26T19:39:50.152Z,11.80
2023-03-26T19:42:23.317Z,11.90
2023-03-26T19:44:53.632Z,11.90
2023-03-26T19:47:35.133Z,12.00
2023-03-26T19:50:23.467Z,12.00
2023-03-26T19:53:15.331Z,12.00
2023-03-26T19:55:55.799Z,12.00
2023-03-26T19:58:24.307Z,12.00
2023-03-26T20:00:55.834Z,12.00
2023-03-26T20:03:29.748Z,12.00
2023-03-26T20:05:58.176Z,12.10
2023-03-26T20:08:27.783Z,12.00
2023-03-26T20:10:58.050Z,12.00
2023-03-26T20:13:26.927Z,12.10
2023-03-26T20:16:04.981Z,12.00
2023-03-26T20:18:34.988Z,12.00
2023-03-26T20:21:03.312Z,12.00
2023-03-26T20:23:31.457Z,12.00
2023-03-26T20:25:59.926Z,12.00
2023-03-26T20:28:28.135Z,12.00
2023-03-26T20:30:57.947Z,12.00
2023-03-26T20:33:27.812Z,11.90
2023-03-26T20:35:57.816Z,11.90
2023-03-26T20:38:39.085Z,11.90
2023-03-26T20:41:08.125Z,11.90
2023-03-26T20:43:36.641Z,11.90
2023-03-26T20:46:06.741Z,12.00
2023-03-26T20:48:35.433Z,12.00
2023-03-26T20:51:04.876Z,12.00
2023-03-26T20:53:33.235Z,12.20
2023-03-26T20:56:02.051Z,12.20
2023-03-26T20:58:32.385Z,12.20
2023-03-26T21:01:01.842Z,12.30
2023-03-26T21:03:31.856Z,12.20
2023-03-26T21:06:02.217Z,12.10
2023-03-26T21:08:37.165Z,12.10
2023-03-26T21:11:07.028Z,12.10
2023-03-26T21:13:40.357Z,12.10
2023-03-26T21:16:11.082Z,12.10
2023-03-26T21:18:42.120Z,12.20
2023-03-26T21:21:28.086Z,12.20
2023-03-26T21:24:05.117Z,12.20
2023-03-26T21:26:43.649Z,12.10
2023-03-26T21:29:12.973Z,12.10
2023-03-26T21:31:41.831Z,12.20
2023-03-26T21:34:13.326Z,12.20
2023-03-26T21:36:42.190Z,12.30
2023-03-26T21:39:11.742Z,12.30
2023-03-26T21:41:46.491Z,12.30
2023-03-26T21:44:16.424Z,12.40
2023-03-26T21:46:45.972Z,12.40
2023-03-26T21:49:18.416Z,12.40
2023-03-26T21:51:47.350Z,12.40
2023-03-26T21:54:26.848Z,12.40
2023-03-26T21:57:11.568Z,12.40
2023-03-26T21:59:50.000Z,12.40
2023-03-26T22:02:25.797Z,12.40
2023-03-26T22:04:58.643Z,12.40
2023-03-26T22:07:31.874Z,12.40
2023-03-26T22:10:00.130Z,12.50
2023-03-26T22:12:28.446Z,12.50
2023-03-26T22:14:56.977Z,12.40
2023-03-26T22:17:25.062Z,12.40
2023-03-26T22:19:53.299Z,12.30
2023-03-26T22:22:26.120Z,12.20
2023-03-26T22:24:54.431Z,12.10
2023-03-26T22:27:22.690Z,12.10
2023-03-26T22:29:50.797Z,12.20
2023-03-26T22:32:19.063Z,12.30
2023-03-26T22:34:47.152Z,12.30
2023-03-26T22:37:16.185Z,12.20
2023-03-26T22:39:45.831Z,12.20
2023-03-26T22:42:14.012Z,12.10
2023-03-26T22:44:42.313Z,12.10
2023-03-26T22:47:10.645Z,12.00
2023-03-26T22:49:38.876Z,12.00
2023-03-26T22:52:07.650Z,11.90
2023-03-26T22:54:36.514Z,11.90
2023-03-26T22:57:06.376Z,12.00
2023-03-26T22:59:34.713Z,12.00
2023-03-26T23:02:03.053Z,12.00
2023-03-26T23:04:32.433Z,12.10
2023-03-26T23:07:01.697Z,12.20
2023-03-26T23:09:29.941Z,12.20
2023-03-26T23:11:58.378Z,12.30
2023-03-26T23:14:28.659Z,12.30
2023-03-26T23:16:57.244Z,12.30
2023-03-26T23:19:25.558Z,12.30
2023-03-26T23:21:53.766Z,12.30
2023-03-26T23:24:21.920Z,12.30
2023-03-26T23:26:51.306Z,12.20
2023-03-26T23:29:19.769Z,12.20
2023-03-26T23:31:49.331Z,12.30
2023-03-26T23:34:18.530Z,12.30
2023-03-26T23:36:47.024Z,12.30
2023-03-26T23:39:15.972Z,12.20
2023-03-26T23:41:44.243Z,12.30
2023-03-26T23:44:14.554Z,12.30
2023-03-26T23:46:42.792Z,12.30
2023-03-26T23:49:12.892Z,12.30
2023-03-26T23:51:42.149Z,12.30
2023-03-26T23:54:11.708Z,12.30
2023-03-26T23:56:39.888Z,12.20
2023-03-26T23:59:08.479Z,12.30
